PWSweather.com
Personal Weather Stations
Station Observations
IONTARIO88
Lincoln, ON L0R

Lincoln, ON L0R

Lat: 43.1763563, Lon: -79.4719525

Elevation: 297

Station Type: Davis Vantage Pro 2 Plus

http://www.beamsvillewx.ca

High Low Average
Temperature 46.6°F8.1°C 31.1°F-0.5°C 37.1°F2.8°C
Dew Point 33.5°F0.8°C 23.8°F-4.6°C 27.8°F-2.3°C
Winds 8.0 mph 12.9 kmh Calm Calm 3.0 mph SSW4.8 kmh SSW
Wind Gusts 18.0 mph29.0 kmh -- 7.0 mph11.3 kmh
Humidity 88% 48% 70%
Pressure 30.72 in1040.3 mb 30.28 in1025.4 mb -
Precipitation 0.01 in0.3 mm - -
Hour Temp Dew Point Humidity Winds Wind Gusts Pressure Precip Precip Rate Daily Precip Total
12:00 AM 31.8°F-0.1°C 22.1°F-5.5°C 67% Calm Calm 3.0 mph4.8 kmh 30.39 in1029.1 mb 0.00 in0.0 mm 0.00 in0.0 mm 0.00 in0.0 mm
12:15 AM 32.2°F0.1°C 22.4°F-5.3°C 67% 2.0 mph W3.2 kmh W 6.0 mph9.7 kmh 30.39 in1029.1 mb 0.00 in0.0 mm 0.00 in0.0 mm 0.00 in0.0 mm
12:30 AM 32.7°F0.4°C 23.3°F-4.8°C 68% 2.0 mph WSW3.2 kmh WSW 6.0 mph9.7 kmh 30.39 in1029.1 mb 0.00 in0.0 mm 0.00 in0.0 mm 0.00 in0.0 mm
12:45 AM 33.1°F0.6°C 24.4°F-4.2°C 70% 2.0 mph WSW3.2 kmh WSW 5.0 mph8.0 kmh 30.39 in1029.1 mb 0.00 in0.0 mm 0.00 in0.0 mm 0.00 in0.0 mm
01:00 AM 32.9°F0.5°C 24.2°F-4.3°C 70% 2.0 mph WSW3.2 kmh WSW 4.0 mph6.4 kmh 30.38 in1028.8 mb 0.00 in0.0 mm 0.00 in0.0 mm 0.00 in0.0 mm
01:15 AM 32.4°F0.2°C 24.3°F-4.3°C 72% 2.0 mph WSW3.2 kmh WSW 6.0 mph9.7 kmh 30.38 in1028.8 mb 0.00 in0.0 mm 0.00 in0.0 mm 0.00 in0.0 mm
01:30 AM 31.8°F-0.1°C 24.5°F-4.2°C 74% 3.0 mph WSW4.8 kmh WSW 6.0 mph9.7 kmh 30.38 in1028.8 mb 0.00 in0.0 mm 0.00 in0.0 mm 0.00 in0.0 mm
01:45 AM 31.6°F-0.2°C 24.6°F-4.1°C 75% 4.0 mph SW6.4 kmh SW 8.0 mph12.9 kmh 30.38 in1028.8 mb 0.00 in0.0 mm 0.00 in0.0 mm 0.00 in0.0 mm
02:00 AM 31.5°F-0.3°C 24.8°F-4.0°C 76% 4.0 mph SSW6.4 kmh SSW 8.0 mph12.9 kmh 30.38 in1028.8 mb 0.00 in0.0 mm 0.00 in0.0 mm 0.00 in0.0 mm
02:15 AM 31.6°F-0.2°C 25.3°F-3.7°C 77% 5.0 mph SSW8.0 kmh SSW 10.0 mph16.1 kmh 30.38 in1028.8 mb 0.00 in0.0 mm 0.00 in0.0 mm 0.00 in0.0 mm
02:30 AM 31.8°F-0.1°C 25.4°F-3.7°C 77% 3.0 mph SSW4.8 kmh SSW 8.0 mph12.9 kmh 30.38 in1028.8 mb 0.00 in0.0 mm 0.00 in0.0 mm 0.00 in0.0 mm
02:45 AM 32.0°F0.0°C 26.2°F-3.2°C 79% 3.0 mph SSW4.8 kmh SSW 9.0 mph14.5 kmh 30.38 in1028.8 mb 0.00 in0.0 mm 0.00 in0.0 mm 0.00 in0.0 mm
03:00 AM 32.0°F0.0°C 26.8°F-2.9°C 81% 3.0 mph SSW4.8 kmh SSW 9.0 mph14.5 kmh 30.40 in1029.5 mb 0.00 in0.0 mm 0.00 in0.0 mm 0.00 in0.0 mm
03:15 AM 32.2°F0.1°C 27.3°F-2.6°C 82% 5.0 mph NW8.0 kmh NW 11.0 mph17.7 kmh 30.40 in1029.5 mb 0.00 in0.0 mm 0.00 in0.0 mm 0.00 in0.0 mm
03:30 AM 32.2°F0.1°C 27.3°F-2.6°C 82% 3.0 mph W4.8 kmh W 7.0 mph11.3 kmh 30.40 in1029.5 mb 0.00 in0.0 mm 0.00 in0.0 mm 0.00 in0.0 mm
03:45 AM 32.2°F0.1°C 27.3°F-2.6°C 82% 2.0 mph W3.2 kmh W 5.0 mph8.0 kmh 30.40 in1029.5 mb 0.00 in0.0 mm 0.00 in0.0 mm 0.00 in0.0 mm
04:00 AM 32.4°F0.2°C 27.8°F-2.3°C 83% 1.0 mph W1.6 kmh W 3.0 mph4.8 kmh 30.40 in1029.5 mb 0.00 in0.0 mm 0.00 in0.0 mm 0.00 in0.0 mm
04:15 AM 32.4°F0.2°C 28.4°F-2.0°C 85% 1.0 mph W1.6 kmh W 2.0 mph3.2 kmh 30.39 in1029.1 mb 0.00 in0.0 mm 0.00 in0.0 mm 0.00 in0.0 mm
04:30 AM 32.2°F0.1°C 28.7°F-1.8°C 87% 1.0 mph W1.6 kmh W 2.0 mph3.2 kmh 30.38 in1028.8 mb 0.01 in0.3 mm 0.04 in1.0 mm 0.01 in0.3 mm
04:45 AM 31.8°F-0.1°C 28.4°F-2.0°C 87% Calm Calm 1.0 mph1.6 kmh 30.38 in1028.8 mb 0.01 in0.3 mm 0.00 in0.0 mm 0.01 in0.3 mm
05:00 AM 31.8°F-0.1°C 28.4°F-2.0°C 87% Calm Calm -- 30.38 in1028.8 mb 0.01 in0.3 mm 0.00 in0.0 mm 0.01 in0.3 mm
05:15 AM 31.3°F-0.4°C 27.9°F-2.3°C 87% Calm Calm 2.0 mph3.2 kmh 30.38 in1028.8 mb 0.01 in0.3 mm 0.00 in0.0 mm 0.01 in0.3 mm
05:30 AM 31.3°F-0.4°C 28.1°F-2.2°C 88% 1.0 mph W1.6 kmh W 3.0 mph4.8 kmh 30.38 in1028.8 mb 0.00 in0.0 mm 0.00 in0.0 mm 0.01 in0.3 mm
05:45 AM 31.5°F-0.3°C 28.0°F-2.2°C 87% Calm Calm 4.0 mph6.4 kmh 30.38 in1028.8 mb 0.00 in0.0 mm 0.00 in0.0 mm 0.01 in0.3 mm
06:00 AM 31.6°F-0.2°C 28.2°F-2.1°C 87% 2.0 mph W3.2 kmh W 5.0 mph8.0 kmh 30.38 in1028.8 mb 0.00 in0.0 mm 0.00 in0.0 mm 0.01 in0.3 mm
06:15 AM 31.8°F-0.1°C 28.1°F-2.2°C 86% Calm Calm 3.0 mph4.8 kmh 30.38 in1028.8 mb 0.00 in0.0 mm 0.00 in0.0 mm 0.01 in0.3 mm
06:30 AM 31.8°F-0.1°C 27.8°F-2.3°C 85% 1.0 mph W1.6 kmh W 3.0 mph4.8 kmh 30.39 in1029.1 mb 0.00 in0.0 mm 0.00 in0.0 mm 0.01 in0.3 mm
06:45 AM 31.5°F-0.3°C 27.5°F-2.5°C 85% Calm Calm 2.0 mph3.2 kmh 30.39 in1029.1 mb 0.00 in0.0 mm 0.00 in0.0 mm 0.01 in0.3 mm
07:00 AM 31.5°F-0.3°C 27.2°F-2.7°C 84% 1.0 mph W1.6 kmh W 2.0 mph3.2 kmh 30.40 in1029.5 mb 0.00 in0.0 mm 0.00 in0.0 mm 0.01 in0.3 mm
07:15 AM 31.1°F-0.5°C 27.1°F-2.7°C 85% 1.0 mph W1.6 kmh W 4.0 mph6.4 kmh 30.40 in1029.5 mb 0.00 in0.0 mm 0.00 in0.0 mm 0.01 in0.3 mm
07:30 AM 31.3°F-0.4°C 27.3°F-2.6°C 85% Calm Calm 2.0 mph3.2 kmh 30.40 in1029.5 mb 0.00 in0.0 mm 0.00 in0.0 mm 0.01 in0.3 mm
07:45 AM 31.5°F-0.3°C 27.2°F-2.7°C 84% 1.0 mph W1.6 kmh W 4.0 mph6.4 kmh 30.40 in1029.5 mb 0.00 in0.0 mm 0.00 in0.0 mm 0.01 in0.3 mm
08:00 AM 31.6°F-0.2°C 27.4°F-2.6°C 84% Calm Calm 2.0 mph3.2 kmh 30.41 in1029.8 mb 0.00 in0.0 mm 0.00 in0.0 mm 0.01 in0.3 mm
08:15 AM 31.6°F-0.2°C 27.1°F-2.7°C 83% 1.0 mph W1.6 kmh W 4.0 mph6.4 kmh 30.41 in1029.8 mb 0.00 in0.0 mm 0.00 in0.0 mm 0.01 in0.3 mm
08:30 AM 32.2°F0.1°C 27.9°F-2.3°C 84% 1.0 mph SE1.6 kmh SE 4.0 mph6.4 kmh 30.41 in1029.8 mb 0.00 in0.0 mm 0.00 in0.0 mm 0.01 in0.3 mm
08:45 AM 33.6°F0.9°C 29.0°F-1.7°C 83% Calm Calm 2.0 mph3.2 kmh 30.42 in1030.1 mb 0.00 in0.0 mm 0.00 in0.0 mm 0.01 in0.3 mm
09:00 AM 34.5°F1.4°C 29.0°F-1.7°C 80% 1.0 mph SE1.6 kmh SE 5.0 mph8.0 kmh 30.42 in1030.1 mb 0.00 in0.0 mm 0.00 in0.0 mm 0.01 in0.3 mm
09:15 AM 34.0°F1.1°C 28.8°F-1.8°C 81% 2.0 mph SE3.2 kmh SE 7.0 mph11.3 kmh 30.43 in1030.5 mb 0.00 in0.0 mm 0.00 in0.0 mm 0.01 in0.3 mm
09:30 AM 34.3°F1.3°C 29.1°F-1.6°C 81% 2.0 mph SE3.2 kmh SE 6.0 mph9.7 kmh 30.43 in1030.5 mb 0.00 in0.0 mm 0.00 in0.0 mm 0.01 in0.3 mm
09:45 AM 35.1°F1.7°C 29.8°F-1.2°C 81% 2.0 mph SE3.2 kmh SE 4.0 mph6.4 kmh 30.43 in1030.5 mb 0.00 in0.0 mm 0.00 in0.0 mm 0.01 in0.3 mm
10:00 AM 36.9°F2.7°C 30.6°F-0.8°C 78% 2.0 mph SSE3.2 kmh SSE 6.0 mph9.7 kmh 30.43 in1030.5 mb 0.00 in0.0 mm 0.00 in0.0 mm 0.01 in0.3 mm
10:15 AM 38.5°F3.6°C 31.2°F-0.4°C 75% 1.0 mph SSW1.6 kmh SSW 4.0 mph6.4 kmh 30.44 in1030.8 mb 0.00 in0.0 mm 0.00 in0.0 mm 0.01 in0.3 mm
10:30 AM 41.2°F5.1°C 32.5°F0.3°C 71% 1.0 mph SSW1.6 kmh SSW 4.0 mph6.4 kmh 30.44 in1030.8 mb 0.00 in0.0 mm 0.00 in0.0 mm 0.01 in0.3 mm
10:45 AM 42.1°F5.6°C 31.9°F-0.1°C 67% 2.0 mph SW3.2 kmh SW 5.0 mph8.0 kmh 30.44 in1030.8 mb 0.00 in0.0 mm 0.00 in0.0 mm 0.01 in0.3 mm
11:00 AM 42.4°F5.8°C 32.3°F0.2°C 67% 2.0 mph SW3.2 kmh SW 5.0 mph8.0 kmh 30.44 in1030.8 mb 0.00 in0.0 mm 0.00 in0.0 mm 0.01 in0.3 mm
11:15 AM 43.3°F6.3°C 32.7°F0.4°C 66% 2.0 mph W3.2 kmh W 6.0 mph9.7 kmh 30.44 in1030.8 mb 0.00 in0.0 mm 0.00 in0.0 mm 0.01 in0.3 mm
11:30 AM 43.9°F6.6°C 32.5°F0.3°C 64% 3.0 mph W4.8 kmh W 6.0 mph9.7 kmh 30.44 in1030.8 mb 0.00 in0.0 mm 0.00 in0.0 mm 0.01 in0.3 mm
11:45 AM 42.4°F5.8°C 32.3°F0.2°C 67% 3.0 mph N4.8 kmh N 6.0 mph9.7 kmh 30.44 in1030.8 mb 0.00 in0.0 mm 0.00 in0.0 mm 0.01 in0.3 mm
12:00 PM 43.0°F6.1°C 33.5°F0.8°C 69% 3.0 mph N4.8 kmh N 6.0 mph9.7 kmh 30.44 in1030.8 mb 0.00 in0.0 mm 0.00 in0.0 mm 0.01 in0.3 mm
12:15 PM 43.2°F6.2°C 32.2°F0.1°C 65% 3.0 mph N4.8 kmh N 6.0 mph9.7 kmh 30.43 in1030.5 mb 0.00 in0.0 mm 0.00 in0.0 mm 0.01 in0.3 mm
12:30 PM 42.6°F5.9°C 32.4°F0.2°C 67% 2.0 mph N3.2 kmh N 5.0 mph8.0 kmh 30.43 in1030.5 mb 0.00 in0.0 mm 0.00 in0.0 mm 0.01 in0.3 mm
12:45 PM 41.5°F5.3°C 31.4°F-0.3°C 67% 3.0 mph NNW4.8 kmh NNW 6.0 mph9.7 kmh 30.44 in1030.8 mb 0.00 in0.0 mm 0.00 in0.0 mm 0.01 in0.3 mm
01:00 PM 41.5°F5.3°C 31.4°F-0.3°C 67% 3.0 mph NNE4.8 kmh NNE 6.0 mph9.7 kmh 30.43 in1030.5 mb 0.00 in0.0 mm 0.00 in0.0 mm 0.01 in0.3 mm
01:15 PM 41.5°F5.3°C 31.4°F-0.3°C 67% 4.0 mph NNE6.4 kmh NNE 7.0 mph11.3 kmh 30.43 in1030.5 mb 0.00 in0.0 mm 0.00 in0.0 mm 0.01 in0.3 mm
01:30 PM 43.9°F6.6°C 31.3°F-0.4°C 61% 1.0 mph E1.6 kmh E 7.0 mph11.3 kmh 30.43 in1030.5 mb 0.00 in0.0 mm 0.00 in0.0 mm 0.01 in0.3 mm
01:45 PM 44.2°F6.8°C 28.6°F-1.9°C 54% 3.0 mph NNW4.8 kmh NNW 9.0 mph14.5 kmh 30.43 in1030.5 mb 0.00 in0.0 mm 0.00 in0.0 mm 0.01 in0.3 mm
02:00 PM 42.1°F5.6°C 31.2°F-0.4°C 65% 2.0 mph N3.2 kmh N 6.0 mph9.7 kmh 30.43 in1030.5 mb 0.00 in0.0 mm 0.00 in0.0 mm 0.01 in0.3 mm
02:15 PM 42.4°F5.8°C 29.9°F-1.2°C 61% 1.0 mph N1.6 kmh N 5.0 mph8.0 kmh 30.42 in1030.1 mb 0.00 in0.0 mm 0.00 in0.0 mm 0.01 in0.3 mm
02:30 PM 43.3°F6.3°C 30.4°F-0.9°C 60% 2.0 mph N3.2 kmh N 4.0 mph6.4 kmh 30.41 in1029.8 mb 0.00 in0.0 mm 0.00 in0.0 mm 0.01 in0.3 mm
02:45 PM 43.7°F6.5°C 29.0°F-1.7°C 56% 1.0 mph N1.6 kmh N 4.0 mph6.4 kmh 30.41 in1029.8 mb 0.00 in0.0 mm 0.00 in0.0 mm 0.01 in0.3 mm
03:00 PM 44.4°F6.9°C 28.3°F-2.1°C 53% 3.0 mph NNW4.8 kmh NNW 7.0 mph11.3 kmh 30.40 in1029.5 mb 0.00 in0.0 mm 0.00 in0.0 mm 0.01 in0.3 mm
03:15 PM 46.6°F8.1°C 29.9°F-1.2°C 52% 4.0 mph SW6.4 kmh SW 11.0 mph17.7 kmh 30.40 in1029.5 mb 0.00 in0.0 mm 0.00 in0.0 mm 0.01 in0.3 mm
03:30 PM 44.8°F7.1°C 29.1°F-1.6°C 54% 8.0 mph SW12.9 kmh SW 15.0 mph24.1 kmh 30.40 in1029.5 mb 0.00 in0.0 mm 0.00 in0.0 mm 0.01 in0.3 mm
03:45 PM 45.0°F7.2°C 28.8°F-1.8°C 53% 5.0 mph S8.0 kmh S 11.0 mph17.7 kmh 30.40 in1029.5 mb 0.00 in0.0 mm 0.00 in0.0 mm 0.01 in0.3 mm
04:00 PM 44.6°F7.0°C 28.0°F-2.2°C 52% 5.0 mph S8.0 kmh S 14.0 mph22.5 kmh 30.39 in1029.1 mb 0.00 in0.0 mm 0.00 in0.0 mm 0.01 in0.3 mm
04:15 PM 44.2°F6.8°C 27.7°F-2.4°C 52% 4.0 mph SW6.4 kmh SW 12.0 mph19.3 kmh 30.39 in1029.1 mb 0.00 in0.0 mm 0.00 in0.0 mm 0.01 in0.3 mm
04:30 PM 44.8°F7.1°C 27.7°F-2.4°C 51% 6.0 mph S9.7 kmh S 12.0 mph19.3 kmh 30.38 in1028.8 mb 0.00 in0.0 mm 0.00 in0.0 mm 0.01 in0.3 mm
04:45 PM 44.1°F6.7°C 27.1°F-2.7°C 51% 7.0 mph SSW11.3 kmh SSW 18.0 mph29.0 kmh 30.38 in1028.8 mb 0.00 in0.0 mm 0.00 in0.0 mm 0.01 in0.3 mm
05:00 PM 43.7°F6.5°C 27.2°F-2.7°C 52% 6.0 mph SSW9.7 kmh SSW 16.0 mph25.7 kmh 30.38 in1028.8 mb 0.00 in0.0 mm 0.00 in0.0 mm 0.01 in0.3 mm
05:15 PM 43.5°F6.4°C 26.6°F-3.0°C 51% 8.0 mph SSW12.9 kmh SSW 16.0 mph25.7 kmh 30.38 in1028.8 mb 0.00 in0.0 mm 0.00 in0.0 mm 0.01 in0.3 mm
05:30 PM 43.3°F6.3°C 26.4°F-3.1°C 51% 7.0 mph SSW11.3 kmh SSW 15.0 mph24.1 kmh 30.37 in1028.4 mb 0.00 in0.0 mm 0.00 in0.0 mm 0.01 in0.3 mm
05:45 PM 44.2°F6.8°C 26.3°F-3.2°C 49% 7.0 mph SSW11.3 kmh SSW 17.0 mph27.4 kmh 30.37 in1028.4 mb 0.00 in0.0 mm 0.00 in0.0 mm 0.01 in0.3 mm
06:00 PM 44.2°F6.8°C 26.3°F-3.2°C 49% 6.0 mph SSW9.7 kmh SSW 12.0 mph19.3 kmh 30.37 in1028.4 mb 0.00 in0.0 mm 0.00 in0.0 mm 0.01 in0.3 mm
06:15 PM 42.6°F5.9°C 25.7°F-3.5°C 51% 7.0 mph SSW11.3 kmh SSW 14.0 mph22.5 kmh 30.37 in1028.4 mb 0.00 in0.0 mm 0.00 in0.0 mm 0.01 in0.3 mm
06:30 PM 42.4°F5.8°C 25.6°F-3.6°C 51% 6.0 mph SSW9.7 kmh SSW 13.0 mph20.9 kmh 30.37 in1028.4 mb 0.00 in0.0 mm 0.00 in0.0 mm 0.01 in0.3 mm
06:45 PM 42.3°F5.7°C 23.9°F-4.5°C 48% 6.0 mph SSW9.7 kmh SSW 11.0 mph17.7 kmh 30.37 in1028.4 mb 0.00 in0.0 mm 0.00 in0.0 mm 0.01 in0.3 mm
07:00 PM 41.0°F5.0°C 23.8°F-4.6°C 50% 5.0 mph SSW8.0 kmh SSW 12.0 mph19.3 kmh 30.37 in1028.4 mb 0.00 in0.0 mm 0.00 in0.0 mm 0.01 in0.3 mm
07:15 PM 40.3°F4.6°C 24.5°F-4.2°C 53% 5.0 mph SSW8.0 kmh SSW 13.0 mph20.9 kmh 30.37 in1028.4 mb 0.00 in0.0 mm 0.00 in0.0 mm 0.01 in0.3 mm
07:30 PM 39.6°F4.2°C 24.3°F-4.3°C 54% 4.0 mph SSW6.4 kmh SSW 7.0 mph11.3 kmh 30.38 in1028.8 mb 0.00 in0.0 mm 0.00 in0.0 mm 0.01 in0.3 mm
07:45 PM 38.7°F3.7°C 23.9°F-4.5°C 55% 4.0 mph SSW6.4 kmh SSW 10.0 mph16.1 kmh 30.37 in1028.4 mb 0.00 in0.0 mm 0.00 in0.0 mm 0.01 in0.3 mm
08:00 PM 38.1°F3.4°C 23.8°F-4.6°C 56% 6.0 mph SSW9.7 kmh SSW 12.0 mph19.3 kmh 30.71 in1040.0 mb 0.00 in0.0 mm 0.00 in0.0 mm 0.01 in0.3 mm
08:15 PM 37.2°F2.9°C 24.2°F-4.3°C 59% 5.0 mph SSW8.0 kmh SSW 10.0 mph16.1 kmh 30.72 in1040.3 mb 0.00 in0.0 mm 0.00 in0.0 mm 0.01 in0.3 mm
08:30 PM 36.7°F2.6°C 24.9°F-3.9°C 62% 5.0 mph SSW8.0 kmh SSW 12.0 mph19.3 kmh 30.71 in1040.0 mb 0.00 in0.0 mm 0.00 in0.0 mm 0.01 in0.3 mm
08:45 PM 36.3°F2.4°C 25.3°F-3.7°C 64% 5.0 mph SSW8.0 kmh SSW 11.0 mph17.7 kmh 30.31 in1026.4 mb 0.00 in0.0 mm 0.00 in0.0 mm 0.01 in0.3 mm
09:00 PM 36.0°F2.2°C 25.3°F-3.7°C 65% 4.0 mph SSW6.4 kmh SSW 11.0 mph17.7 kmh 30.31 in1026.4 mb 0.00 in0.0 mm 0.00 in0.0 mm 0.01 in0.3 mm
09:15 PM 35.8°F2.1°C 25.9°F-3.4°C 67% 5.0 mph SSW8.0 kmh SSW 10.0 mph16.1 kmh 30.31 in1026.4 mb 0.00 in0.0 mm 0.00 in0.0 mm 0.01 in0.3 mm
09:30 PM 35.4°F1.9°C 25.9°F-3.4°C 68% 4.0 mph SSW6.4 kmh SSW 9.0 mph14.5 kmh 30.31 in1026.4 mb 0.00 in0.0 mm 0.00 in0.0 mm 0.01 in0.3 mm
09:45 PM 35.2°F1.8°C 26.1°F-3.3°C 69% 4.0 mph SSW6.4 kmh SSW 9.0 mph14.5 kmh 30.31 in1026.4 mb 0.00 in0.0 mm 0.00 in0.0 mm 0.01 in0.3 mm
10:00 PM 34.7°F1.5°C 26.3°F-3.2°C 71% 4.0 mph SSW6.4 kmh SSW 10.0 mph16.1 kmh 30.30 in1026.1 mb 0.00 in0.0 mm 0.00 in0.0 mm 0.01 in0.3 mm
10:15 PM 34.5°F1.4°C 26.4°F-3.1°C 72% 4.0 mph SSW6.4 kmh SSW 8.0 mph12.9 kmh 30.30 in1026.1 mb 0.00 in0.0 mm 0.00 in0.0 mm 0.01 in0.3 mm
10:30 PM 34.3°F1.3°C 26.6°F-3.0°C 73% 5.0 mph SSW8.0 kmh SSW 10.0 mph16.1 kmh 30.30 in1026.1 mb 0.00 in0.0 mm 0.00 in0.0 mm 0.01 in0.3 mm
10:45 PM 34.2°F1.2°C 26.4°F-3.1°C 73% 3.0 mph S4.8 kmh S 7.0 mph11.3 kmh 30.30 in1026.1 mb 0.00 in0.0 mm 0.00 in0.0 mm 0.01 in0.3 mm
11:00 PM 33.8°F1.0°C 26.7°F-2.9°C 75% 3.0 mph S4.8 kmh S 6.0 mph9.7 kmh 30.30 in1026.1 mb 0.00 in0.0 mm 0.00 in0.0 mm 0.01 in0.3 mm
11:15 PM 33.4°F0.8°C 27.0°F-2.8°C 77% 2.0 mph SSW3.2 kmh SSW 6.0 mph9.7 kmh 30.30 in1026.1 mb 0.00 in0.0 mm 0.00 in0.0 mm 0.01 in0.3 mm
11:30 PM 33.4°F0.8°C 27.3°F-2.6°C 78% 2.0 mph SSW3.2 kmh SSW 7.0 mph11.3 kmh 30.29 in1025.7 mb 0.00 in0.0 mm 0.00 in0.0 mm 0.01 in0.3 mm
11:45 PM 33.1°F0.6°C 27.3°F-2.6°C 79% 3.0 mph SSW4.8 kmh SSW 8.0 mph12.9 kmh 30.30 in1026.1 mb 0.00 in0.0 mm 0.00 in0.0 mm 0.01 in0.3 mm